This demonstration page uses our WeatherBlox Daily Observations layout. Learn more.

38.88101, -77.10428

Hourly Observations for January 26, 2016

Temp ( °F °C ) Dew Point ( °F °C ) Humidity (%) Winds ( mph kmh ) Pressure ( in mb ) Visibility ( mi km ) Precip ( " mm )
12:52 am 00:52 Mostly Cloudy 35 1.7 26 -3.3 70 70 SW 5 7 30.18 1022 10 16.0934 0 0
1:52 am 01:52 Mostly Cloudy 34 1.1 25 -3.9 70 70 Calm 30.15 1021 10 16.0934 0 0
2:52 am 02:52 Mostly Cloudy 32 0 24 -4.4 73 73 S 9 15 30.15 1021 10 16.0934 0 0
3:52 am 03:52 Mostly Cloudy 35 1.7 25 -3.9 67 67 S 16 26 30.11 1020 10 16.0934 0 0
4:52 am 04:52 Cloudy 35 1.7 25 -3.9 67 67 SSW 7 11 30.1 1019 10 16.0934 0 0
5:52 am 05:52 Mostly Cloudy 37 2.8 26 -3.3 65 65 Calm 30.1 1019 10 16.0934 0 0
6:52 am 06:52 Cloudy 36 2.2 27 -2.8 70 70 S 7 11 30.11 1020 10 16.0934 0 0
7:52 am 07:52 Cloudy 38 3.3 29 -1.7 70 70 Calm 30.12 1020 10 16.0934 0 0
8:52 am 08:52 Cloudy 38 3.3 30 -1.1 73 73 S 9 15 30.11 1020 10 16.0934 0 0.0254
9:52 am 09:52 Cloudy 41 5 30 -1.1 65 65 SSW 7 11 30.11 1020 10 16.0934 0 0
10:52 am 10:52 Cloudy 41 5 30 -1.1 65 65 S 12 19 30.08 1019 10 16.0934 0 0
11:52 am 11:52 Cloudy 45 7.2 30 -1.1 56 56 SSW 8 13 30.05 1018 10 16.0934 0 0
12:52 pm 12:52 Cloudy 47 8.3 30 -1.1 52 52 SSW 9 15 30.02 1017 10 16.0934 0 0
1:52 pm 13:52 Cloudy 51 10.6 31 -0.6 46 46 SSW 12 19 30.01 1016 10 16.0934 0 0
2:52 pm 14:52 Cloudy 49 9.4 31 -0.6 50 50 SSW 14 22 30 1016 10 16.0934 0 0
3:52 pm 15:52 Mostly Cloudy 50 10 32 0 50 50 S 16 26 29.98 1015 10 16.0934 0 0
4:52 pm 16:52 Cloudy 49 9.4 33 0.6 55 55 SSW 13 20 30 1016 10 16.0934 0 0
5:52 pm 17:52 Cloudy 51 10.6 34 1.1 52 52 SSW 8 13 30.02 1017 10 16.0934 0 0
6:52 pm 18:52 Cloudy with Light Rain 43 6.1 36 2.2 76 76 S 9 15 30.01 1016 10 16.0934 0 0.0254
7:52 pm 19:52 Cloudy 47 8.3 36 2.2 66 66 SSW 7 11 30.01 1016 10 16.0934 0 0.0254
8:52 pm 20:52 Mostly Cloudy 44 6.7 35 1.7 71 71 S 8 13 30 1016 10 16.0934 0 0
9:52 pm 21:52 Cloudy 43 6.1 34 1.1 71 71 SSW 3 6 30 1016 10 16.0934 0 0
10:52 pm 22:52 Cloudy 45 7.2 35 1.7 68 68 S 3 6 30 1016 10 16.0934 0 0
11:52 pm 23:52 Cloudy 45 7.2 35 1.7 68 68 S 7 11 29.99 1016 10 16.0934 0 0

Powered by AerisWeather